Airfield :
LOGIN :

Register | Disclaimer

   EN    FR    IT 

 










Legend :    VFR   Marginal VFR   IFR   Intensive IFR   Very Intensive IFR
Visi :
Ceiling :
>= 8 km
>= 3000ft
5 to 8 km
1000 to 3000 ft
1500m to 5 km
500 to 1000 ft
800 to 1500m
200 to 500 ft
< 800m
< 200 ft
Symbols :   Thunderstorms  Fog  Heavy snow  Heavy precipitations  Wind > 20 kt
SIGMETs :     Misc.  Thunderstorms  Icing  Turbulence  Mountain Waves  Volcanic Ashes






- Airport Elevation : 194 ft
- IATA code : ANE


LFJR - Angers Marcé

CURRENT METAR :
  • 212330Z AUTO 02005KT 340V040 CAVOK 06/03 Q1027

EXPIRED METARs :
  • 212300Z AUTO 02005KT CAVOK 06/03 Q1027
  • 212230Z AUTO 03005KT 9999 FEW047 06/03 Q1027
  • 212200Z AUTO 03003KT 360V060 CAVOK 06/03 Q1027
  • 212130Z AUTO 01004KT CAVOK 06/04 Q1026
  • 212100Z AUTO 36005KT CAVOK 06/04 Q1026
  • 212030Z AUTO 35006KT 320V020 CAVOK 06/04 Q1026
  • 212000Z AUTO VRB03KT CAVOK 07/04 Q1026
  • 211930Z AUTO 02005KT 360V060 9999 FEW034 BKN060 BKN078 07/04 Q1025
  • 211900Z AUTO 01006KT 340V040 9999 FEW035 BKN043 BKN062 10/02 Q1025

Expired Forecast.



MET'MAP, your aeronautical weather chart ! - Copyright ORBIFLY December 2007 - Disclaimer

ORBIFLY MET'MAP TEAM :

Programming & Development : Alexandra Zaïnal
Original concept : Baudouin d'Aumeries
Technical & hardware support : Manuel Goepfert
Assistance : Marc-Olivier Méhu




SOURCES & CREDITS :

   NOAA